createdAt,value
2023-01-19T00:00:37.072Z,99.46
2023-01-19T00:03:38.899Z,98.93
2023-01-19T00:06:54.019Z,99.28
2023-01-19T00:10:02.696Z,99.82
2023-01-19T00:13:11.002Z,99.56
2023-01-19T00:16:26.988Z,99.53
2023-01-19T00:19:29.227Z,99.31
2023-01-19T00:22:44.020Z,100.00
2023-01-19T00:25:52.995Z,100.00
2023-01-19T00:29:01.976Z,99.30
2023-01-19T00:32:12.044Z,99.94
2023-01-19T00:35:20.640Z,99.79
2023-01-19T00:38:29.008Z,99.66
2023-01-19T00:41:44.061Z,100.00
2023-01-19T00:44:45.914Z,99.59
2023-01-19T00:48:08.059Z,99.50
2023-01-19T00:51:09.868Z,99.37
2023-01-19T00:54:26.898Z,100.00
2023-01-19T00:57:29.444Z,100.00
2023-01-19T01:00:44.053Z,99.88
2023-01-19T01:03:53.034Z,100.00
2023-01-19T01:07:01.680Z,99.70
2023-01-19T01:10:10.032Z,99.04
2023-01-19T01:13:20.191Z,98.96
2023-01-19T01:16:30.089Z,99.42
2023-01-19T01:19:48.047Z,98.36
2023-01-19T01:22:52.130Z,98.53
2023-01-19T01:26:07.009Z,99.15
2023-01-19T01:29:08.863Z,99.27
2023-01-19T01:32:24.071Z,99.21
2023-01-19T01:35:25.908Z,98.84
2023-01-19T01:38:42.110Z,98.66
2023-01-19T01:41:51.051Z,99.24
2023-01-19T01:45:23.090Z,97.94
2023-01-19T01:48:39.044Z,98.70
2023-01-19T01:51:53.023Z,98.29
2023-01-19T01:55:03.097Z,98.84
2023-01-19T01:58:19.072Z,98.55
2023-01-19T02:01:21.002Z,98.75
2023-01-19T02:04:38.060Z,98.64
2023-01-19T02:08:05.657Z,99.21
2023-01-19T02:11:20.060Z,98.49
2023-01-19T02:14:29.089Z,99.14
2023-01-19T02:17:37.725Z,98.92
2023-01-19T02:20:50.129Z,98.89
2023-01-19T02:24:00.353Z,98.31
2023-01-19T02:27:09.065Z,99.12
2023-01-19T02:30:18.813Z,99.11
2023-01-19T02:33:27.096Z,99.27
2023-01-19T02:36:51.094Z,98.91
2023-01-19T02:39:56.640Z,99.17
2023-01-19T02:43:14.116Z,98.90
2023-01-19T02:46:16.355Z,98.75
2023-01-19T02:49:38.072Z,98.62
2023-01-19T02:52:46.042Z,97.86
2023-01-19T02:56:07.149Z,98.28
2023-01-19T02:59:31.107Z,98.28
2023-01-19T03:02:55.666Z,97.54
2023-01-19T03:06:18.087Z,97.50
2023-01-19T03:09:47.079Z,97.34
2023-01-19T03:12:56.662Z,97.30
2023-01-19T03:16:21.829Z,96.42
2023-01-19T03:19:32.796Z,96.88
2023-01-19T03:22:48.113Z,96.31
2023-01-19T03:25:51.015Z,96.32
2023-01-19T03:29:09.089Z,96.33
2023-01-19T03:32:23.217Z,96.57
2023-01-19T03:35:35.779Z,95.94
2023-01-19T03:38:47.134Z,95.14
2023-01-19T03:42:07.256Z,94.45
2023-01-19T03:45:17.167Z,94.46
2023-01-19T03:48:40.149Z,94.03
2023-01-19T03:51:42.228Z,95.17
2023-01-19T03:54:57.108Z,96.22
2023-01-19T03:57:59.015Z,95.57
2023-01-19T04:01:15.261Z,95.14
2023-01-19T04:04:24.141Z,94.46
2023-01-19T04:07:32.676Z,94.94
2023-01-19T04:10:41.212Z,95.38
2023-01-19T04:13:49.713Z,95.98
2023-01-19T04:16:58.120Z,95.99
2023-01-19T04:20:14.120Z,95.84
2023-01-19T04:23:22.181Z,96.05
2023-01-19T04:26:37.109Z,95.42
2023-01-19T04:29:39.256Z,95.19
2023-01-19T04:32:55.107Z,95.39
2023-01-19T04:35:57.305Z,94.48
2023-01-19T04:39:12.137Z,94.05
2023-01-19T04:42:21.147Z,92.94
2023-01-19T04:45:29.712Z,93.15
2023-01-19T04:48:51.164Z,93.02
2023-01-19T04:51:59.804Z,93.68
2023-01-19T04:55:11.167Z,92.81
2023-01-19T04:58:19.723Z,92.85
2023-01-19T05:01:29.248Z,92.50
2023-01-19T05:04:44.144Z,91.51
2023-01-19T05:07:53.000Z,92.22
2023-01-19T05:11:01.222Z,92.26
2023-01-19T05:14:10.156Z,91.92
2023-01-19T05:17:19.217Z,91.85
2023-01-19T05:20:34.163Z,93.95
2023-01-19T05:23:36.000Z,93.89
2023-01-19T05:26:51.164Z,91.68
2023-01-19T05:30:00.073Z,91.36
2023-01-19T05:33:09.193Z,91.70
2023-01-19T05:36:24.457Z,91.60
2023-01-19T05:39:32.867Z,91.21
2023-01-19T05:42:47.171Z,91.13
2023-01-19T05:45:49.187Z,91.26
2023-01-19T05:49:11.209Z,90.86
2023-01-19T05:52:13.142Z,91.47
2023-01-19T05:55:28.190Z,91.37
2023-01-19T05:58:36.160Z,91.44
2023-01-19T06:01:44.944Z,91.21
2023-01-19T06:04:53.210Z,91.47
2023-01-19T06:08:02.129Z,91.48
2023-01-19T06:11:12.234Z,91.02
2023-01-19T06:14:21.007Z,90.31
2023-01-19T06:17:39.260Z,89.16
2023-01-19T06:20:48.171Z,88.93
2023-01-19T06:23:56.840Z,90.07
2023-01-19T06:27:05.174Z,90.50
2023-01-19T06:30:14.268Z,89.93
2023-01-19T06:33:24.153Z,89.18
2023-01-19T06:36:39.184Z,90.02
2023-01-19T06:39:41.096Z,90.82
2023-01-19T06:42:56.200Z,91.63
2023-01-19T06:45:58.846Z,90.30
2023-01-19T06:49:20.305Z,90.34
2023-01-19T06:52:22.288Z,90.20
2023-01-19T06:55:37.430Z,90.67
2023-01-19T06:58:46.200Z,89.91
2023-01-19T07:02:01.426Z,89.79
2023-01-19T07:05:29.187Z,89.39
2023-01-19T07:08:45.220Z,89.98
2023-01-19T07:11:47.752Z,90.26
2023-01-19T07:15:06.352Z,90.26
2023-01-19T07:18:15.043Z,89.86
2023-01-19T07:21:25.849Z,90.36
2023-01-19T07:24:34.928Z,90.17
2023-01-19T07:27:49.224Z,89.47
2023-01-19T07:30:59.301Z,89.47
2023-01-19T07:34:14.272Z,90.16
2023-01-19T07:37:23.253Z,90.54
2023-01-19T07:40:31.911Z,90.53
2023-01-19T07:43:41.254Z,90.10
2023-01-19T07:47:03.266Z,90.40
2023-01-19T07:50:19.327Z,89.66
2023-01-19T07:53:38.364Z,89.84
2023-01-19T07:56:50.232Z,90.06
2023-01-19T07:59:58.948Z,90.52
2023-01-19T08:03:09.262Z,90.67
2023-01-19T08:06:22.555Z,90.66
2023-01-19T08:09:31.230Z,90.13
2023-01-19T08:12:40.424Z,90.36
2023-01-19T08:15:50.033Z,89.98
2023-01-19T08:19:08.386Z,90.52
2023-01-19T08:22:28.293Z,89.48
2023-01-19T08:25:47.360Z,89.35
2023-01-19T08:28:49.333Z,90.72
2023-01-19T08:32:05.903Z,89.77
2023-01-19T08:35:15.325Z,89.61
2023-01-19T08:38:24.156Z,89.50
2023-01-19T08:41:33.358Z,89.13
2023-01-19T08:44:57.256Z,88.99
2023-01-19T08:48:06.299Z,88.82
2023-01-19T08:51:21.587Z,89.70
2023-01-19T08:54:30.339Z,89.97
2023-01-19T08:57:38.995Z,89.29
2023-01-19T09:00:47.304Z,90.50
2023-01-19T09:04:02.281Z,91.37
2023-01-19T09:10:20.229Z,91.87
2023-01-19T09:13:29.303Z,92.25
2023-01-19T09:16:44.316Z,91.40
2023-01-19T09:19:56.305Z,91.90
2023-01-19T09:23:12.491Z,92.38
2023-01-19T09:26:21.359Z,91.37
2023-01-19T09:29:30.646Z,92.64
2023-01-19T09:33:10.525Z,93.18
2023-01-19T09:36:25.289Z,93.50
2023-01-19T09:39:27.387Z,93.49
2023-01-19T09:42:55.011Z,92.40
2023-01-19T09:46:03.739Z,92.59
2023-01-19T09:49:40.336Z,93.23
2023-01-19T09:52:47.392Z,92.58
2023-01-19T09:56:03.307Z,92.81
2023-01-19T09:59:30.313Z,92.99
2023-01-19T10:02:40.494Z,92.93
2023-01-19T10:06:08.404Z,93.38
2023-01-19T10:09:27.527Z,93.45
2023-01-19T10:12:54.429Z,94.00
2023-01-19T10:16:10.216Z,94.13
2023-01-19T10:19:39.360Z,93.23
2023-01-19T10:22:42.899Z,94.71
2023-01-19T10:25:59.418Z,94.59
2023-01-19T10:29:26.402Z,93.18
2023-01-19T10:32:34.014Z,94.10
2023-01-19T10:35:48.404Z,94.50
2023-01-19T10:38:50.532Z,93.32
2023-01-19T10:42:09.423Z,93.95
2023-01-19T10:45:21.862Z,93.75
2023-01-19T10:48:46.496Z,93.88
2023-01-19T10:52:04.320Z,94.39
2023-01-19T10:55:26.712Z,94.24
2023-01-19T10:58:37.377Z,94.17
2023-01-19T11:02:09.860Z,93.43
2023-01-19T11:05:24.673Z,93.68
2023-01-19T11:08:49.571Z,94.32
2023-01-19T11:11:53.444Z,94.42
2023-01-19T11:15:22.325Z,93.86
2023-01-19T11:18:30.502Z,93.00
2023-01-19T11:21:45.377Z,93.54
2023-01-19T11:25:05.348Z,93.59
2023-01-19T11:28:25.393Z,94.40
2023-01-19T11:31:42.500Z,94.47
2023-01-19T11:34:44.414Z,93.68
2023-01-19T11:38:13.388Z,92.89
2023-01-19T11:41:19.962Z,92.86
2023-01-19T11:44:41.380Z,92.10
2023-01-19T11:47:50.109Z,91.21
2023-01-19T11:50:59.384Z,92.22
